sensor_id;sensor_type;location;lat;lon;timestamp;pressure;altitude;pressure_sealevel;temperature;humidity
43691;BME280;29293;52.190;21.226;2023-03-11T00:14:03;97605.60;;;6.37;100.00
43691;BME280;29293;52.190;21.226;2023-03-11T00:29:10;97602.96;;;6.35;100.00
43691;BME280;29293;52.190;21.226;2023-03-11T00:44:16;97587.31;;;6.27;100.00
43691;BME280;29293;52.190;21.226;2023-03-11T00:59:24;97576.52;;;6.23;100.00
43691;BME280;29293;52.190;21.226;2023-03-11T01:14:31;97561.98;;;6.06;100.00
43691;BME280;29293;52.190;21.226;2023-03-11T01:29:38;97550.61;;;5.96;100.00
43691;BME280;29293;52.190;21.226;2023-03-11T01:44:45;97540.90;;;5.80;100.00
43691;BME280;29293;52.190;21.226;2023-03-11T01:59:54;97534.58;;;5.58;100.00
43691;BME280;29293;52.190;21.226;2023-03-11T02:15:03;97529.59;;;5.43;100.00
43691;BME280;29293;52.190;21.226;2023-03-11T02:30:11;97521.54;;;5.11;100.00
43691;BME280;29293;52.190;21.226;2023-03-11T02:45:27;97516.89;;;4.76;100.00
43691;BME280;29293;52.190;21.226;2023-03-11T03:00:35;97511.05;;;4.56;100.00
43691;BME280;29293;52.190;21.226;2023-03-11T03:15:42;97513.20;;;4.46;100.00
43691;BME280;29293;52.190;21.226;2023-03-11T03:30:49;97505.88;;;4.24;100.00
43691;BME280;29293;52.190;21.226;2023-03-11T03:46:00;97506.33;;;4.09;100.00
43691;BME280;29293;52.190;21.226;2023-03-11T04:01:09;97511.95;;;3.83;100.00
43691;BME280;29293;52.190;21.226;2023-03-11T04:16:18;97482.45;;;3.74;100.00
43691;BME280;29293;52.190;21.226;2023-03-11T04:31:26;97473.23;;;3.65;100.00
43691;BME280;29293;52.190;21.226;2023-03-11T04:46:33;97474.67;;;3.59;100.00
43691;BME280;29293;52.190;21.226;2023-03-11T05:01:40;97481.58;;;3.70;100.00
43691;BME280;29293;52.190;21.226;2023-03-11T05:16:47;97493.52;;;3.96;100.00
43691;BME280;29293;52.190;21.226;2023-03-11T05:31:53;97477.02;;;4.20;100.00
43691;BME280;29293;52.190;21.226;2023-03-11T05:47:00;97471.14;;;4.37;100.00
43691;BME280;29293;52.190;21.226;2023-03-11T06:02:07;97459.48;;;4.54;100.00
43691;BME280;29293;52.190;21.226;2023-03-11T06:17:14;97464.23;;;4.77;100.00
43691;BME280;29293;52.190;21.226;2023-03-11T06:32:21;97480.28;;;5.02;100.00
43691;BME280;29293;52.190;21.226;2023-03-11T06:47:28;97493.48;;;5.28;100.00
43691;BME280;29293;52.190;21.226;2023-03-11T07:02:35;97493.27;;;5.62;100.00
43691;BME280;29293;52.190;21.226;2023-03-11T07:17:42;97500.96;;;6.18;100.00
43691;BME280;29293;52.190;21.226;2023-03-11T07:32:49;97509.46;;;6.56;100.00
43691;BME280;29293;52.190;21.226;2023-03-11T07:47:56;97522.91;;;6.73;100.00
43691;BME280;29293;52.190;21.226;2023-03-11T08:03:03;97527.90;;;6.94;100.00
43691;BME280;29293;52.190;21.226;2023-03-11T08:18:10;97546.02;;;6.99;100.00
43691;BME280;29293;52.190;21.226;2023-03-11T08:33:17;97550.06;;;7.01;100.00
43691;BME280;29293;52.190;21.226;2023-03-11T08:48:24;97563.23;;;7.03;100.00
43691;BME280;29293;52.190;21.226;2023-03-11T09:03:33;97579.07;;;6.92;100.00
43691;BME280;29293;52.190;21.226;2023-03-11T09:18:41;97599.91;;;6.74;100.00
43691;BME280;29293;52.190;21.226;2023-03-11T09:33:48;97616.27;;;6.65;100.00
43691;BME280;29293;52.190;21.226;2023-03-11T09:49:01;97633.63;;;6.48;100.00
43691;BME280;29293;52.190;21.226;2023-03-11T10:04:14;97642.53;;;6.39;100.00
43691;BME280;29293;52.190;21.226;2023-03-11T10:19:31;97672.56;;;6.13;100.00
43691;BME280;29293;52.190;21.226;2023-03-11T10:34:44;97717.42;;;5.26;100.00
43691;BME280;29293;52.190;21.226;2023-03-11T10:49:52;97765.50;;;4.31;100.00
43691;BME280;29293;52.190;21.226;2023-03-11T11:05:27;97812.81;;;3.75;100.00
43691;BME280;29293;52.190;21.226;2023-03-11T11:20:34;97853.64;;;3.06;100.00
43691;BME280;29293;52.190;21.226;2023-03-11T11:35:51;97901.33;;;2.43;100.00
43691;BME280;29293;52.190;21.226;2023-03-11T11:51:02;97956.83;;;1.67;100.00
43691;BME280;29293;52.190;21.226;2023-03-11T12:06:20;97988.48;;;1.34;100.00
43691;BME280;29293;52.190;21.226;2023-03-11T12:21:45;98036.95;;;1.28;100.00
43691;BME280;29293;52.190;21.226;2023-03-11T12:37:00;98078.35;;;1.02;100.00
43691;BME280;29293;52.190;21.226;2023-03-11T12:52:25;98116.67;;;0.81;100.00
43691;BME280;29293;52.190;21.226;2023-03-11T13:07:44;98159.56;;;0.53;100.00
43691;BME280;29293;52.190;21.226;2023-03-11T13:23:22;98197.38;;;0.23;100.00
43691;BME280;29293;52.190;21.226;2023-03-11T13:38:42;98246.80;;;0.13;100.00
43691;BME280;29293;52.190;21.226;2023-03-11T13:53:55;98287.45;;;0.10;100.00
43691;BME280;29293;52.190;21.226;2023-03-11T14:09:03;98336.23;;;-0.09;100.00
43691;BME280;29293;52.190;21.226;2023-03-11T14:24:17;98381.66;;;-0.26;100.00
43691;BME280;29293;52.190;21.226;2023-03-11T14:39:27;98421.05;;;-0.29;100.00
43691;BME280;29293;52.190;21.226;2023-03-11T14:54:35;98458.58;;;-0.41;100.00
43691;BME280;29293;52.190;21.226;2023-03-11T15:09:43;98499.23;;;-0.39;100.00
43691;BME280;29293;52.190;21.226;2023-03-11T15:24:52;98536.78;;;-0.31;100.00
43691;BME280;29293;52.190;21.226;2023-03-11T15:40:12;98568.17;;;-0.28;100.00
43691;BME280;29293;52.190;21.226;2023-03-11T15:55:19;98597.73;;;-0.29;100.00
43691;BME280;29293;52.190;21.226;2023-03-11T16:10:26;98635.94;;;-0.29;100.00
43691;BME280;29293;52.190;21.226;2023-03-11T16:25:36;98668.84;;;-0.29;100.00
43691;BME280;29293;52.190;21.226;2023-03-11T16:40:44;98708.90;;;-0.32;100.00
43691;BME280;29293;52.190;21.226;2023-03-11T16:55:51;98750.33;;;-0.35;100.00
43691;BME280;29293;52.190;21.226;2023-03-11T17:10:58;98792.02;;;-0.38;100.00
43691;BME280;29293;52.190;21.226;2023-03-11T17:26:08;98828.85;;;-0.40;100.00
43691;BME280;29293;52.190;21.226;2023-03-11T17:41:16;98858.11;;;-0.50;100.00
43691;BME280;29293;52.190;21.226;2023-03-11T17:56:23;98880.56;;;-0.54;100.00
43691;BME280;29293;52.190;21.226;2023-03-11T18:11:31;98906.04;;;-0.53;100.00
43691;BME280;29293;52.190;21.226;2023-03-11T18:26:38;98927.52;;;-0.56;100.00
43691;BME280;29293;52.190;21.226;2023-03-11T18:41:44;98957.59;;;-0.61;100.00
43691;BME280;29293;52.190;21.226;2023-03-11T18:56:51;98990.66;;;-0.74;100.00
43691;BME280;29293;52.190;21.226;2023-03-11T19:11:58;99020.17;;;-0.95;100.00
43691;BME280;29293;52.190;21.226;2023-03-11T19:27:04;99052.58;;;-1.12;100.00
43691;BME280;29293;52.190;21.226;2023-03-11T19:42:11;99075.20;;;-1.23;100.00
43691;BME280;29293;52.190;21.226;2023-03-11T19:57:17;99104.86;;;-1.34;100.00
43691;BME280;29293;52.190;21.226;2023-03-11T20:12:24;99127.50;;;-1.47;100.00
43691;BME280;29293;52.190;21.226;2023-03-11T20:27:31;99146.98;;;-1.58;100.00
43691;BME280;29293;52.190;21.226;2023-03-11T20:42:38;99171.30;;;-1.64;100.00
43691;BME280;29293;52.190;21.226;2023-03-11T20:57:47;99185.33;;;-1.75;100.00
43691;BME280;29293;52.190;21.226;2023-03-11T21:12:54;99198.88;;;-1.82;100.00
43691;BME280;29293;52.190;21.226;2023-03-11T21:28:01;99215.02;;;-1.85;100.00
43691;BME280;29293;52.190;21.226;2023-03-11T21:43:07;99220.31;;;-1.75;100.00
43691;BME280;29293;52.190;21.226;2023-03-11T21:58:14;99234.94;;;-1.70;100.00
43691;BME280;29293;52.190;21.226;2023-03-11T22:13:22;99251.77;;;-1.74;100.00
43691;BME280;29293;52.190;21.226;2023-03-11T22:28:29;99253.80;;;-1.84;100.00
43691;BME280;29293;52.190;21.226;2023-03-11T22:43:37;99274.08;;;-1.82;100.00
43691;BME280;29293;52.190;21.226;2023-03-11T22:58:44;99283.62;;;-1.79;100.00
43691;BME280;29293;52.190;21.226;2023-03-11T23:13:51;99299.88;;;-1.90;100.00
43691;BME280;29293;52.190;21.226;2023-03-11T23:28:58;99308.14;;;-1.98;100.00
43691;BME280;29293;52.190;21.226;2023-03-11T23:44:05;99314.78;;;-2.10;100.00
43691;BME280;29293;52.190;21.226;2023-03-11T23:59:13;99320.66;;;-2.26;100.00
